Time;durP1;ratioP1;P1;durP2;ratioP2;P2;SDS_P1;SDS_P2;PMS_P1;PMS_P2;Temp;Humidity;BMP_temperature;BMP_pressure;BME280_temperature;BME280_humidity;BME280_pressure;Samples;Min_cycle;Max_cycle;Signal;HPM_P1;HPM_P2
2022/12/05 00:00:19;;;;;;;29.67;14.27;;;3.30;38.20;;;;;;7372697;19;20017;-72
2022/12/05 00:02:49;;;;;;;31.30;14.75;;;3.20;37.10;;;;;;7374932;19;20018;-72
2022/12/05 00:05:19;;;;;;;28.13;14.00;;;3.20;36.60;;;;;;7375088;19;20470;-72
2022/12/05 00:07:49;;;;;;;26.92;13.50;;;3.20;35.80;;;;;;7395693;19;20007;-72
2022/12/05 00:10:19;;;;;;;22.63;12.65;;;3.20;34.70;;;;;;7370428;19;20030;-72
2022/12/05 00:12:49;;;;;;;24.77;13.13;;;3.20;33.10;;;;;;7374157;19;20010;-72
2022/12/05 00:15:21;;;;;;;27.75;13.10;;;3.20;32.90;;;;;;7375025;19;20006;-72
2022/12/05 00:17:51;;;;;;;23.67;12.88;;;3.10;31.30;;;;;;7372993;19;20006;-72
2022/12/05 00:20:21;;;;;;;24.75;12.43;;;3.10;30.20;;;;;;7370768;19;20374;-72
2022/12/05 00:22:50;;;;;;;22.38;11.98;;;3.10;30.20;;;;;;7395402;19;20025;-72
2022/12/05 00:25:20;;;;;;;24.08;12.13;;;3.10;28.90;;;;;;7372648;19;20006;-72
2022/12/05 00:27:50;;;;;;;21.65;11.68;;;3.10;29.40;;;;;;7373610;19;20024;-72
2022/12/05 00:30:23;;;;;;;21.30;11.38;;;3.10;28.60;;;;;;7371286;19;20006;-72
2022/12/05 00:32:52;;;;;;;23.05;11.38;;;3.10;27.70;;;;;;7373862;19;20014;-72
2022/12/05 00:35:22;;;;;;;23.00;11.88;;;3.10;27.90;;;;;;7369383;19;20085;-72
2022/12/05 00:37:52;;;;;;;24.65;12.00;;;3.10;27.70;;;;;;7389882;19;20022;-72
2022/12/05 00:40:22;;;;;;;25.33;11.82;;;3.10;27.20;;;;;;7393124;19;20015;-71
2022/12/05 00:42:52;;;;;;;23.00;12.15;;;3.10;27.60;;;;;;7373275;19;20027;-72
2022/12/05 00:45:24;;;;;;;23.20;12.80;;;3.10;26.80;;;;;;7373608;19;20470;-71
2022/12/05 00:47:54;;;;;;;24.02;12.00;;;3.10;26.80;;;;;;7373194;19;20714;-71
2022/12/05 00:50:24;;;;;;;23.20;12.13;;;3.10;26.70;;;;;;7371123;19;20486;-72
2022/12/05 00:52:54;;;;;;;23.25;11.35;;;3.20;26.90;;;;;;7375540;19;20035;-72
2022/12/05 00:55:23;;;;;;;22.83;12.45;;;3.10;26.00;;;;;;7394991;19;20011;-71
2022/12/05 00:57:53;;;;;;;24.60;11.98;;;3.10;26.50;;;;;;7371033;19;20029;-72
2022/12/05 01:00:26;;;;;;;24.70;12.15;;;3.00;26.00;;;;;;7370718;19;20006;-71
2022/12/05 01:02:56;;;;;;;25.45;12.68;;;3.00;26.10;;;;;;7372865;19;20014;-72
2022/12/05 01:05:26;;;;;;;24.67;12.13;;;3.10;26.50;;;;;;7372684;19;20360;-71
2022/12/05 01:07:56;;;;;;;25.92;12.18;;;3.10;27.10;;;;;;7372530;19;20082;-72
2022/12/05 01:10:26;;;;;;;27.85;13.55;;;3.00;26.80;;;;;;7390334;19;20509;-71
2022/12/05 01:12:56;;;;;;;27.77;12.50;;;3.10;27.20;;;;;;7371454;19;20078;-71
2022/12/05 01:15:28;;;;;;;31.40;13.20;;;3.10;27.50;;;;;;7370454;19;20498;-71
2022/12/05 01:17:58;;;;;;;29.33;13.38;;;3.00;26.90;;;;;;7372477;19;20009;-71
2022/12/05 01:20:28;;;;;;;28.58;13.40;;;3.00;28.10;;;;;;7368410;19;20446;-71
2022/12/05 01:22:58;;;;;;;29.55;13.85;;;3.10;28.40;;;;;;7371805;19;20027;-72
2022/12/05 01:25:27;;;;;;;24.73;13.00;;;3.10;28.20;;;;;;7392422;19;20470;-71
2022/12/05 01:27:57;;;;;;;30.73;14.05;;;3.00;27.50;;;;;;7371284;19;20558;-72
2022/12/05 01:30:30;;;;;;;28.33;13.90;;;3.00;27.60;;;;;;7369908;19;20007;-72
2022/12/05 01:33:01;;;;;;;28.73;12.60;;;3.00;27.70;;;;;;7371733;19;20014;-72
2022/12/05 01:35:33;;;;;;;27.75;13.45;;;3.10;28.80;;;;;;7370677;19;20361;-71
2022/12/05 01:38:02;;;;;;;27.10;13.55;;;3.00;28.90;;;;;;7370214;19;20014;-71
2022/12/05 01:40:34;;;;;;;27.98;14.15;;;3.00;28.70;;;;;;7392083;19;20010;-72
2022/12/05 01:43:04;;;;;;;26.42;12.38;;;3.00;28.50;;;;;;7371302;19;20493;-72
2022/12/05 01:45:38;;;;;;;27.10;13.52;;;3.00;28.30;;;;;;7370691;19;20414;-72
2022/12/05 01:48:15;;;;;;;27.40;12.88;;;3.00;28.40;;;;;;7371329;19;20090;-71
2022/12/05 01:50:46;;;;;;;28.60;12.43;;;3.00;27.50;;;;;;7371338;19;20010;-72
2022/12/05 01:53:17;;;;;;;28.75;13.02;;;3.00;27.70;;;;;;7372231;19;20007;-71
2022/12/05 01:55:49;;;;;;;26.88;12.57;;;3.10;28.00;;;;;;7392695;19;20011;-72
2022/12/05 01:58:20;;;;;;;28.75;13.18;;;3.00;28.20;;;;;;7368023;19;20017;-71
2022/12/05 02:00:52;;;;;;;29.88;13.55;;;3.00;28.50;;;;;;7371239;19;20395;-71
2022/12/05 02:03:23;;;;;;;29.25;14.85;;;3.00;28.90;;;;;;7370365;19;20035;-71
2022/12/05 02:05:55;;;;;;;25.25;13.18;;;3.00;28.80;;;;;;7371317;19;20021;-71
2022/12/05 02:08:25;;;;;;;27.77;12.98;;;3.00;28.70;;;;;;7368905;19;20775;-72
2022/12/05 02:10:58;;;;;;;28.63;12.95;;;2.90;28.90;;;;;;7370222;19;20014;-72
2022/12/05 02:13:45;;;;;;;25.30;12.65;;;2.90;29.30;;;;;;7390971;19;20026;-71
2022/12/05 02:16:29;;;;;;;28.83;13.13;;;2.90;29.40;;;;;;7370371;19;20010;-72
2022/12/05 02:19:12;;;;;;;26.33;13.40;;;3.00;29.60;;;;;;7367660;19;20010;-71
2022/12/05 02:22:05;;;;;;;25.35;13.02;;;3.00;29.40;;;;;;7370394;19;20474;-72
2022/12/05 02:24:52;;;;;;;27.40;13.13;;;3.00;29.40;;;;;;7370181;19;20105;-71
2022/12/05 02:27:46;;;;;;;24.80;11.65;;;3.00;29.40;;;;;;7369207;19;20464;-72
2022/12/05 02:30:20;;;;;;;24.27;12.05;;;2.90;29.80;;;;;;7368362;19;20010;-71
2022/12/05 02:32:56;;;;;;;;;;;3.00;30.20;;;;;;7370548;19;20014;-71
2022/12/05 02:35:43;;;;;;;25.23;12.23;;;3.00;30.00;;;;;;7369464;19;19927;-71
2022/12/05 02:38:23;;;;;;;29.58;12.68;;;3.00;30.00;;;;;;7369344;19;20045;-71
2022/12/05 02:41:03;;;;;;;24.58;12.30;;;3.00;29.80;;;;;;7383142;19;20082;-71
2022/12/05 02:43:39;;;;;;;27.30;13.10;;;3.00;30.00;;;;;;7392192;19;20126;-71
2022/12/05 02:46:14;;;;;;;22.67;13.00;;;3.00;30.00;;;;;;7369463;19;20010;-71
2022/12/05 02:48:46;;;;;;;27.02;12.65;;;3.00;30.00;;;;;;7367367;19;20125;-71
2022/12/05 02:51:21;;;;;;;23.45;11.30;;;3.10;29.90;;;;;;7369831;19;20497;-72
2022/12/05 02:53:53;;;;;;;22.88;11.20;;;3.10;28.50;;;;;;7369839;19;20010;-72
2022/12/05 02:56:23;;;;;;;24.65;11.85;;;3.10;27.90;;;;;;7368101;19;20405;-71
2022/12/05 02:58:56;;;;;;;22.55;10.90;;;3.10;27.10;;;;;;7384035;19;20017;-72
2022/12/05 03:01:32;;;;;;;23.25;11.25;;;3.20;26.80;;;;;;7397259;19;20010;-71
2022/12/05 03:04:05;;;;;;;20.33;11.15;;;3.20;26.60;;;;;;7376557;19;20010;-71
2022/12/05 03:06:38;;;;;;;22.23;11.32;;;3.10;25.90;;;;;;7375284;19;20135;-72
2022/12/05 03:09:11;;;;;;;20.13;10.85;;;3.10;26.30;;;;;;7375351;19;20021;-72
2022/12/05 03:11:47;;;;;;;21.27;10.82;;;3.10;26.30;;;;;;7375793;19;20466;-71
2022/12/05 03:14:21;;;;;;;20.67;10.35;;;3.20;26.50;;;;;;7376813;19;20513;-70
2022/12/05 03:16:56;;;;;;;20.63;10.55;;;3.10;25.60;;;;;;7398258;19;20316;-71
2022/12/05 03:19:29;;;;;;;19.15;10.88;;;3.10;26.40;;;;;;7372725;19;20007;-70
2022/12/05 03:22:03;;;;;;;18.75;9.68;;;3.20;26.50;;;;;;7375567;19;20034;-70
2022/12/05 03:24:36;;;;;;;18.13;10.05;;;3.10;25.90;;;;;;7374673;19;20014;-72
2022/12/05 03:27:12;;;;;;;20.02;9.85;;;3.10;26.60;;;;;;7374457;19;20053;-72
2022/12/05 03:29:49;;;;;;;16.70;9.77;;;3.20;25.70;;;;;;7374102;19;20034;-72
2022/12/05 03:32:26;;;;;;;18.60;8.85;;;3.10;26.20;;;;;;7376216;19;20014;-72
2022/12/05 03:35:07;;;;;;;20.83;10.15;;;3.20;26.50;;;;;;7376382;19;20065;-72
2022/12/05 03:37:44;;;;;;;16.58;9.10;;;3.20;26.50;;;;;;7396877;19;20014;-71
2022/12/05 03:40:24;;;;;;;20.55;10.30;;;3.10;25.40;;;;;;7372566;19;20458;-71
2022/12/05 03:42:59;;;;;;;20.20;10.13;;;3.10;26.20;;;;;;7374785;19;20006;-72
2022/12/05 03:45:35;;;;;;;22.35;10.23;;;3.20;26.90;;;;;;7376125;19;20013;-72
2022/12/05 03:48:15;;;;;;;19.20;9.95;;;3.20;26.80;;;;;;7374836;19;20031;-72
2022/12/05 03:50:49;;;;;;;18.48;9.35;;;3.20;27.00;;;;;;7375292;19;20422;-72
2022/12/05 03:53:24;;;;;;;17.48;9.93;;;3.20;26.80;;;;;;7375669;19;20014;-72
2022/12/05 03:56:00;;;;;;;20.38;10.00;;;3.20;26.90;;;;;;7376014;19;20038;-72
2022/12/05 03:58:34;;;;;;;17.08;9.45;;;3.30;27.00;;;;;;7394364;19;20081;-73
2022/12/05 04:01:06;;;;;;;16.70;9.73;;;3.30;26.90;;;;;;7375022;19;20014;-72
2022/12/05 04:03:43;;;;;;;20.83;10.43;;;3.30;26.90;;;;;;7373696;19;20083;-72
2022/12/05 04:06:19;;;;;;;18.58;10.13;;;3.30;26.80;;;;;;7375244;19;20005;-72
2022/12/05 04:08:54;;;;;;;22.70;10.45;;;3.30;26.70;;;;;;7371741;19;20419;-72
2022/12/05 04:11:28;;;;;;;18.48;9.93;;;3.30;27.10;;;;;;7373969;19;20350;-72
2022/12/05 04:14:03;;;;;;;17.58;9.57;;;3.30;26.90;;;;;;7374188;19;20015;-73
2022/12/05 04:21:36;;;;;;;19.63;10.00;;;3.30;25.80;;;;;;7371529;19;20089;-70
2022/12/05 04:22:18;;;;;;;19.30;10.30;;;3.20;26.70;;;;;;7371250;19;20010;-71
2022/12/05 04:27:40;;;;;;;19.23;9.80;;;3.20;26.70;;;;;;7373462;19;20020;-72
2022/12/05 04:30:13;;;;;;;21.02;10.23;;;3.20;27.00;;;;;;7373026;19;20017;-72
2022/12/05 04:32:48;;;;;;;20.33;9.98;;;3.30;27.10;;;;;;7373327;19;20034;-72
2022/12/05 04:35:24;;;;;;;23.45;12.00;;;3.30;27.00;;;;;;7374935;19;20056;-72
2022/12/05 04:38:01;;;;;;;22.52;10.55;;;3.30;26.80;;;;;;7373648;19;20014;-73
2022/12/05 04:40:36;;;;;;;17.88;9.30;;;3.40;26.40;;;;;;7391559;19;20470;-72
2022/12/05 04:43:07;;;;;;;;;;;3.40;26.10;;;;;;7374309;19;20013;-72
2022/12/05 04:45:39;;;;;;;21.45;10.45;;;3.40;26.10;;;;;;7372879;19;20342;-71
2022/12/05 04:48:15;;;;;;;16.63;10.02;;;3.40;26.70;;;;;;7373040;19;20046;-71
2022/12/05 04:50:51;;;;;;;16.73;9.70;;;3.40;26.90;;;;;;7372991;19;20518;-71
2022/12/05 04:53:22;;;;;;;18.75;9.75;;;3.40;27.20;;;;;;7372518;19;20011;-71
2022/12/05 04:55:57;;;;;;;20.75;10.68;;;3.40;27.40;;;;;;7391046;19;20346;-71
2022/12/05 04:58:28;;;;;;;;;;;3.40;27.00;;;;;;7393155;19;20021;-71
2022/12/05 05:01:05;;;;;;;19.33;10.45;;;3.40;28.00;;;;;;7372942;19;20278;-71
2022/12/05 05:03:41;;;;;;;20.13;10.52;;;3.40;28.70;;;;;;7372300;19;20048;-71
2022/12/05 05:06:15;;;;;;;18.05;10.27;;;3.40;28.70;;;;;;7373188;19;20003;-71
2022/12/05 05:08:49;;;;;;;20.20;11.40;;;3.40;28.90;;;;;;7370973;19;20026;-71
2022/12/05 05:11:21;;;;;;;27.83;11.55;;;3.50;28.80;;;;;;7373623;19;20007;-71
2022/12/05 05:13:51;;;;;;;21.60;10.48;;;3.50;28.10;;;;;;7394170;19;20103;-71
2022/12/05 05:16:22;;;;;;;20.90;10.23;;;3.50;28.80;;;;;;7372570;19;20006;-70
2022/12/05 05:18:53;;;;;;;23.75;12.13;;;3.50;28.40;;;;;;7369668;19;20058;-71
2022/12/05 05:21:28;;;;;;;21.63;11.57;;;3.60;28.20;;;;;;7370979;19;20078;-71
2022/12/05 05:23:59;;;;;;;21.42;10.43;;;3.50;27.90;;;;;;7372170;19;20074;-71
2022/12/05 05:26:31;;;;;;;24.10;10.88;;;3.60;28.10;;;;;;7372221;19;20006;-71
2022/12/05 05:29:01;;;;;;;21.08;11.20;;;3.60;28.20;;;;;;7370511;19;20038;-71
2022/12/05 05:31:30;;;;;;;22.10;11.63;;;3.60;28.20;;;;;;7393601;19;20077;-71
2022/12/05 05:34:01;;;;;;;23.35;12.20;;;3.60;28.50;;;;;;7371189;19;20022;-71
2022/12/05 05:36:41;;;;;;;22.55;11.55;;;3.60;28.60;;;;;;7371595;19;20022;-71
2022/12/05 05:39:14;;;;;;;20.73;11.40;;;3.60;28.50;;;;;;7370327;19;20010;-71
2022/12/05 05:41:44;;;;;;;22.92;13.23;;;3.60;28.60;;;;;;7371164;19;20010;-71
2022/12/05 05:44:14;;;;;;;24.50;12.15;;;3.60;28.60;;;;;;7371508;19;20058;-71
2022/12/05 05:46:44;;;;;;;22.88;11.30;;;3.60;28.90;;;;;;7393328;19;20010;-71
2022/12/05 05:49:14;;;;;;;24.52;11.43;;;3.60;28.50;;;;;;7369371;19;20026;-71
2022/12/05 05:51:46;;;;;;;23.75;12.00;;;3.60;29.40;;;;;;7370402;19;20013;-71
2022/12/05 05:54:16;;;;;;;22.83;11.35;;;3.60;28.90;;;;;;7371459;19;20010;-71
2022/12/05 05:56:46;;;;;;;23.77;11.52;;;3.50;28.90;;;;;;7371005;19;20570;-72
2022/12/05 05:59:16;;;;;;;25.48;11.35;;;3.60;28.90;;;;;;7369712;19;20009;-71
2022/12/05 06:01:46;;;;;;;23.25;11.05;;;3.50;28.90;;;;;;7392261;19;20031;-71
2022/12/05 06:04:15;;;;;;;23.80;13.18;;;3.50;29.20;;;;;;7370384;19;20013;-71
2022/12/05 06:06:48;;;;;;;20.00;10.93;;;3.60;29.60;;;;;;7370155;19;20018;-72
2022/12/05 06:09:17;;;;;;;22.65;11.25;;;3.60;29.90;;;;;;7368572;19;20541;-71
2022/12/05 06:11:47;;;;;;;24.00;12.25;;;3.60;29.20;;;;;;7370597;19;20470;-72
2022/12/05 06:14:17;;;;;;;25.38;12.70;;;3.60;29.40;;;;;;7368933;19;20018;-71
2022/12/05 06:16:47;;;;;;;24.85;12.15;;;3.60;29.30;;;;;;7391583;19;20013;-71
2022/12/05 06:19:17;;;;;;;24.52;13.05;;;3.60;29.00;;;;;;7368377;19;20006;-71
2022/12/05 06:21:50;;;;;;;20.98;11.55;;;3.60;28.90;;;;;;7369250;19;20011;-71
2022/12/05 06:24:20;;;;;;;28.08;12.07;;;3.60;28.50;;;;;;7367236;19;20501;-71
2022/12/05 06:27:00;;;;;;;24.65;12.05;;;3.60;28.10;;;;;;7369847;19;20017;-72
2022/12/05 06:29:29;;;;;;;26.73;12.90;;;3.60;28.20;;;;;;7366400;19;20868;-71
2022/12/05 06:32:02;;;;;;;23.40;12.23;;;3.70;28.00;;;;;;7366754;19;20043;-71
2022/12/05 06:34:34;;;;;;;27.05;14.10;;;3.70;28.60;;;;;;7388079;19;20014;-71
2022/12/05 06:37:06;;;;;;;27.83;13.57;;;3.70;28.60;;;;;;7366646;19;20014;-71
2022/12/05 06:39:37;;;;;;;26.17;12.43;;;3.80;28.90;;;;;;7366856;19;20034;-71
2022/12/05 06:42:07;;;;;;;27.05;13.25;;;3.80;28.50;;;;;;7368208;19;20111;-71
2022/12/05 06:44:37;;;;;;;25.67;12.43;;;3.80;28.40;;;;;;7368390;19;20015;-71
2022/12/05 06:47:07;;;;;;;25.77;12.35;;;3.80;28.10;;;;;;7369644;19;20025;-71
2022/12/05 06:49:37;;;;;;;26.85;11.88;;;3.80;27.70;;;;;;7387842;19;20015;-71
2022/12/05 06:52:09;;;;;;;24.92;12.77;;;3.80;28.20;;;;;;7369001;19;20002;-72
2022/12/05 06:54:42;;;;;;;35.45;12.60;;;3.80;28.20;;;;;;7366506;19;20022;-72
2022/12/05 06:57:12;;;;;;;23.27;12.23;;;3.90;28.00;;;;;;7367834;19;20009;-71
2022/12/05 06:59:42;;;;;;;27.33;13.10;;;3.90;27.60;;;;;;7364856;19;20035;-72
2022/12/05 07:02:11;;;;;;;25.02;11.93;;;3.80;27.60;;;;;;7367438;19;20342;-71
2022/12/05 07:04:41;;;;;;;29.45;13.32;;;3.80;27.50;;;;;;7388161;19;20018;-72
2022/12/05 07:07:14;;;;;;;29.05;12.52;;;3.90;27.90;;;;;;7366264;19;20010;-71
2022/12/05 07:09:52;;;;;;;23.75;12.40;;;3.90;27.80;;;;;;7363823;19;19999;-71
2022/12/05 07:12:22;;;;;;;27.92;13.30;;;3.80;27.20;;;;;;7364098;19;20010;-71
2022/12/05 07:14:52;;;;;;;25.92;12.60;;;3.90;27.90;;;;;;7366509;19;20018;-72
2022/12/05 07:17:23;;;;;;;25.05;12.63;;;3.90;28.00;;;;;;7366103;19;20466;-71
2022/12/05 07:19:54;;;;;;;27.33;13.77;;;3.90;27.90;;;;;;7384733;19;20013;-73
2022/12/05 07:22:27;;;;;;;27.17;13.18;;;4.00;27.80;;;;;;7388303;19;20007;-70
2022/12/05 07:24:57;;;;;;;22.42;12.15;;;4.00;27.60;;;;;;7364858;19;20506;-71
2022/12/05 07:27:26;;;;;;;25.02;12.85;;;3.90;27.60;;;;;;7364823;19;20466;-71
2022/12/05 07:29:57;;;;;;;24.02;12.88;;;4.00;27.90;;;;;;7363699;19;19998;-71
2022/12/05 07:32:28;;;;;;;25.30;11.93;;;3.90;27.60;;;;;;7364412;19;20031;-70
2022/12/05 07:34:57;;;;;;;23.67;13.18;;;4.00;27.10;;;;;;7366183;19;20018;-73
2022/12/05 07:37:30;;;;;;;24.63;12.60;;;4.00;27.60;;;;;;7387456;19;20018;-71
2022/12/05 07:39:59;;;;;;;23.98;12.52;;;4.00;27.10;;;;;;7364088;19;20010;-72
2022/12/05 07:42:30;;;;;;;28.17;12.50;;;4.10;27.50;;;;;;7363578;19;20010;-72
2022/12/05 07:44:59;;;;;;;23.98;12.07;;;4.10;27.00;;;;;;7369023;19;20017;-72
2022/12/05 07:47:31;;;;;;;27.83;12.27;;;4.20;26.90;;;;;;7374109;19;20030;-72
2022/12/05 07:50:01;;;;;;;22.92;11.93;;;4.20;25.90;;;;;;7371420;19;20482;-70
2022/12/05 07:52:33;;;;;;;22.50;12.30;;;4.20;25.90;;;;;;7395499;19;20458;-72
2022/12/05 07:55:03;;;;;;;25.95;11.73;;;4.20;25.90;;;;;;7373091;19;20088;-72
2022/12/05 07:57:33;;;;;;;27.65;12.52;;;4.20;25.80;;;;;;7371478;19;20029;-72
2022/12/05 08:00:03;;;;;;;23.98;12.65;;;4.20;25.90;;;;;;7371565;19;20010;-71
2022/12/05 08:02:33;;;;;;;23.92;12.48;;;4.30;25.90;;;;;;7371221;19;20466;-71
2022/12/05 08:05:09;;;;;;;24.02;11.80;;;4.30;25.50;;;;;;7374333;19;20018;-70
2022/12/05 08:07:42;;;;;;;24.73;12.18;;;4.30;26.00;;;;;;7393906;19;20025;-71
2022/12/05 08:10:12;;;;;;;24.50;13.15;;;4.30;26.00;;;;;;7368022;19;20007;-72
2022/12/05 08:12:42;;;;;;;21.70;11.23;;;4.30;26.00;;;;;;7371682;19;20074;-72
2022/12/05 08:15:13;;;;;;;21.00;11.13;;;4.30;26.00;;;;;;7374254;19;20013;-72
2022/12/05 08:17:43;;;;;;;23.40;12.23;;;4.30;26.40;;;;;;7373659;19;20043;-73
2022/12/05 08:20:14;;;;;;;27.05;13.02;;;4.30;26.70;;;;;;7371330;19;20102;-72
2022/12/05 08:22:46;;;;;;;23.08;12.45;;;4.30;27.10;;;;;;7394906;19;20018;-70
2022/12/05 08:25:16;;;;;;;26.02;12.75;;;4.30;27.10;;;;;;7371940;19;20013;-71
2022/12/05 08:27:46;;;;;;;23.05;12.15;;;4.40;27.80;;;;;;7372757;19;20002;-71
2022/12/05 08:30:16;;;;;;;24.27;12.10;;;4.50;28.00;;;;;;7371229;19;20003;-71
2022/12/05 08:32:46;;;;;;;22.35;11.90;;;4.50;27.90;;;;;;7370939;19;20021;-70
2022/12/05 08:35:16;;;;;;;23.33;12.23;;;4.40;26.90;;;;;;7368351;19;20010;-71
2022/12/05 08:37:48;;;;;;;21.40;11.93;;;4.50;27.80;;;;;;7394220;19;20025;-71
2022/12/05 08:40:18;;;;;;;26.80;12.93;;;4.50;27.80;;;;;;7369860;19;20006;-71
2022/12/05 08:42:48;;;;;;;22.38;11.65;;;4.60;27.90;;;;;;7369982;19;20016;-70
2022/12/05 08:45:18;;;;;;;22.95;12.88;;;4.60;27.60;;;;;;7370677;19;20143;-72
2022/12/05 08:47:48;;;;;;;25.20;12.95;;;4.60;28.40;;;;;;7372861;19;20018;-71
2022/12/05 08:50:18;;;;;;;22.33;13.30;;;4.60;28.00;;;;;;7369823;19;20522;-70
2022/12/05 08:52:50;;;;;;;28.80;13.10;;;4.70;27.00;;;;;;7393996;19;20018;-71
2022/12/05 08:55:20;;;;;;;21.95;12.10;;;4.70;26.90;;;;;;7370162;19;20010;-70
2022/12/05 08:57:50;;;;;;;20.63;12.23;;;4.70;27.70;;;;;;7370411;19;20042;-69
2022/12/05 09:00:21;;;;;;;23.95;12.80;;;4.60;27.00;;;;;;7368771;19;20474;-70
2022/12/05 09:02:52;;;;;;;25.80;12.10;;;4.60;27.70;;;;;;7368414;19;20015;-71
2022/12/05 09:05:23;;;;;;;25.75;13.45;;;4.60;27.50;;;;;;7370418;19;20168;-72
2022/12/05 09:08:01;;;;;;;21.23;11.80;;;4.60;28.30;;;;;;7371522;19;20025;-72
2022/12/05 09:10:31;;;;;;;21.73;11.68;;;4.70;28.60;;;;;;7391793;19;20027;-70
2022/12/05 09:13:01;;;;;;;22.95;11.52;;;4.70;28.80;;;;;;7369215;19;20014;-71
2022/12/05 09:15:31;;;;;;;22.25;12.00;;;4.70;27.50;;;;;;7370247;19;20010;-71
2022/12/05 09:18:01;;;;;;;21.67;13.05;;;4.60;27.00;;;;;;7370181;19;20435;-71
2022/12/05 09:20:31;;;;;;;23.33;11.95;;;4.60;27.30;;;;;;7368618;19;20014;-71
2022/12/05 09:23:03;;;;;;;24.27;11.88;;;4.60;26.10;;;;;;7369128;19;20010;-71
2022/12/05 09:25:33;;;;;;;20.98;12.82;;;4.60;26.10;;;;;;7391970;19;20030;-71
2022/12/05 09:28:03;;;;;;;22.25;11.93;;;4.70;26.20;;;;;;7370735;19;20014;-71
2022/12/05 09:30:32;;;;;;;23.08;12.15;;;4.80;26.70;;;;;;7368986;19;20031;-71
2022/12/05 09:33:02;;;;;;;22.33;12.68;;;4.90;27.60;;;;;;7369748;19;20128;-71
2022/12/05 09:35:32;;;;;;;24.17;12.35;;;4.90;27.00;;;;;;7369585;19;20007;-71
2022/12/05 09:38:04;;;;;;;24.95;12.90;;;4.80;26.70;;;;;;7370805;19;20018;-71
2022/12/05 09:40:34;;;;;;;22.25;11.82;;;4.80;26.90;;;;;;7391231;19;20014;-72
2022/12/05 09:43:08;;;;;;;23.48;12.20;;;4.80;26.60;;;;;;7368329;19;20021;-70
2022/12/05 09:45:41;;;;;;;22.67;11.52;;;4.90;28.00;;;;;;7368577;19;20017;-70
2022/12/05 09:48:15;;;;;;;20.58;11.52;;;4.90;27.50;;;;;;7369465;19;20006;-71
2022/12/05 09:50:49;;;;;;;19.00;11.18;;;4.90;26.20;;;;;;7371159;19;20013;-70
2022/12/05 09:53:30;;;;;;;24.90;12.90;;;4.90;26.30;;;;;;7369686;19;20021;-71
2022/12/05 09:56:06;;;;;;;21.20;12.10;;;4.90;26.30;;;;;;7369755;19;20014;-70
2022/12/05 09:58:43;;;;;;;24.90;12.95;;;4.90;25.90;;;;;;7390385;19;20025;-71
2022/12/05 10:01:32;;;;;;;20.15;12.15;;;4.90;26.90;;;;;;7367716;19;20482;-71
2022/12/05 10:04:23;;;;;;;21.92;13.38;;;4.90;28.40;;;;;;7366749;19;20109;-71
2022/12/05 10:07:03;;;;;;;23.80;13.70;;;4.80;29.00;;;;;;7368670;19;20011;-71
2022/12/05 10:09:49;;;;;;;25.33;13.57;;;4.70;29.30;;;;;;7366140;19;20012;-70
2022/12/05 10:12:46;;;;;;;24.75;14.10;;;4.80;30.40;;;;;;7368170;19;20007;-71
2022/12/05 10:15:21;;;;;;;30.95;15.07;;;4.90;31.40;;;;;;7370004;19;20050;-70
2022/12/05 10:17:55;;;;;;;24.23;12.60;;;5.10;31.60;;;;;;7368272;19;20013;-69
2022/12/05 10:20:30;;;;;;;24.67;12.85;;;5.10;29.90;;;;;;7364412;19;20027;-69
2022/12/05 10:23:02;;;;;;;;;;;5.00;30.50;;;;;;7368910;19;20494;-71
2022/12/05 10:25:39;;;;;;;21.05;12.35;;;5.00;30.80;;;;;;7390659;19;19918;-71
2022/12/05 10:28:17;;;;;;;22.88;12.52;;;5.00;31.60;;;;;;7392799;19;20013;-70
2022/12/05 10:30:49;;;;;;;27.73;14.52;;;5.00;30.90;;;;;;7390763;19;20398;-70
2022/12/05 10:33:23;;;;;;;29.42;16.33;;;5.00;31.70;;;;;;7393290;19;20510;-71
2022/12/05 10:35:53;;;;;;;21.55;12.70;;;4.90;31.50;;;;;;7392738;19;20014;-70
2022/12/05 10:38:27;;;;;;;20.23;12.15;;;4.90;31.00;;;;;;7389000;19;20375;-69
2022/12/05 10:41:05;;;;;;;22.65;13.68;;;4.80;30.50;;;;;;7390887;19;20031;-69
2022/12/05 10:43:37;;;;;;;20.65;12.63;;;4.80;31.50;;;;;;7390774;19;20027;-70
2022/12/05 10:46:07;;;;;;;25.83;13.98;;;4.80;31.70;;;;;;7392210;19;20347;-70
2022/12/05 10:48:44;;;;;;;22.25;13.07;;;4.80;32.60;;;;;;7390345;19;20015;-71
2022/12/05 10:51:17;;;;;;;24.77;13.52;;;4.90;33.00;;;;;;7363021;19;20035;-70
2022/12/05 10:53:51;;;;;;;23.23;13.18;;;4.90;32.60;;;;;;7365497;19;20010;-70
2022/12/05 10:56:46;;;;;;;25.42;13.88;;;5.00;32.80;;;;;;7366102;19;20022;-71
2022/12/05 10:59:17;;;;;;;26.30;13.27;;;5.00;32.60;;;;;;7367653;19;20018;-69
2022/12/05 11:01:51;;;;;;;26.23;13.07;;;4.90;31.00;;;;;;7389901;19;20066;-70
2022/12/05 11:04:28;;;;;;;25.63;13.23;;;5.10;31.80;;;;;;7367348;19;20014;-70
2022/12/05 11:07:01;;;;;;;19.48;11.63;;;5.20;31.60;;;;;;7367405;19;20018;-70
2022/12/05 11:09:33;;;;;;;19.17;11.20;;;5.10;27.60;;;;;;7366480;19;20017;-70
2022/12/05 11:12:16;;;;;;;18.45;11.27;;;5.20;27.00;;;;;;7366768;19;20011;-70
2022/12/05 11:15:01;;;;;;;22.50;12.88;;;5.40;25.80;;;;;;7366662;19;20062;-70
2022/12/05 11:17:34;;;;;;;18.08;10.95;;;5.50;26.70;;;;;;7366835;19;20078;-70
2022/12/05 11:20:25;;;;;;;20.27;10.73;;;5.60;25.10;;;;;;7370651;19;20019;-70
2022/12/05 11:22:58;;;;;;;17.42;11.32;;;5.50;23.90;;;;;;7395748;19;20030;-70
2022/12/05 11:25:32;;;;;;;23.90;12.57;;;5.90;24.80;;;;;;7373957;19;20338;-69
2022/12/05 11:28:23;;;;;;;21.58;11.50;;;5.90;22.20;;;;;;7374731;19;20010;-70
2022/12/05 11:30:59;;;;;;;16.08;9.55;;;6.00;20.20;;;;;;7373893;19;20466;-70
2022/12/05 11:33:30;;;;;;;16.05;10.07;;;5.80;20.10;;;;;;7373972;19;20018;-70
2022/12/05 11:36:06;;;;;;;19.23;9.98;;;5.80;19.40;;;;;;7373416;19;20007;-70
2022/12/05 11:38:38;;;;;;;16.80;10.80;;;5.80;19.10;;;;;;7374059;19;20011;-70
2022/12/05 11:41:35;;;;;;;18.17;10.50;;;6.00;20.70;;;;;;7375275;19;20011;-70
2022/12/05 11:44:20;;;;;;;17.55;10.30;;;5.90;19.70;;;;;;7371700;19;20018;-69
2022/12/05 11:47:01;;;;;;;20.20;12.50;;;6.10;18.20;;;;;;7396240;19;20010;-69
2022/12/05 11:49:52;;;;;;;16.50;9.95;;;6.20;18.60;;;;;;7371011;19;20014;-69
2022/12/05 11:52:36;;;;;;;15.82;9.80;;;6.30;17.90;;;;;;7373085;19;20014;-70
2022/12/05 11:55:17;;;;;;;15.13;10.15;;;6.30;17.50;;;;;;7374128;19;20013;-69
2022/12/05 11:58:04;;;;;;;16.20;10.05;;;6.30;15.10;;;;;;7372340;19;20470;-69
2022/12/05 12:00:41;;;;;;;14.23;10.30;;;6.20;14.70;;;;;;7371574;19;20014;-69
2022/12/05 12:03:26;;;;;;;15.55;9.98;;;6.30;15.60;;;;;;7372507;19;20066;-68
2022/12/05 12:06:14;;;;;;;15.63;9.90;;;6.40;16.00;;;;;;7373558;19;20412;-69
2022/12/05 12:08:58;;;;;;;16.58;9.63;;;6.50;15.10;;;;;;7370515;19;20014;-69
2022/12/05 12:11:37;;;;;;;13.10;9.13;;;6.40;14.70;;;;;;7372660;19;20014;-70
2022/12/05 12:14:16;;;;;;;17.23;9.40;;;6.40;15.20;;;;;;7372875;19;20021;-70
2022/12/05 12:16:55;;;;;;;15.23;9.65;;;6.30;15.20;;;;;;7393712;19;20014;-68
2022/12/05 12:19:45;;;;;;;15.93;9.40;;;6.30;14.80;;;;;;7370149;19;20014;-69
2022/12/05 12:22:32;;;;;;;12.05;7.97;;;6.30;15.30;;;;;;7372597;19;20039;-69
2022/12/05 12:25:19;;;;;;;13.02;8.80;;;6.20;13.30;;;;;;7371863;19;20016;-69
2022/12/05 12:28:00;;;;;;;13.80;8.90;;;6.20;13.80;;;;;;7372054;19;20077;-69
2022/12/05 12:30:45;;;;;;;14.80;9.27;;;6.10;14.50;;;;;;7368703;19;20010;-70
2022/12/05 12:33:24;;;;;;;12.73;8.60;;;6.20;15.30;;;;;;7372858;19;20006;-70
2022/12/05 12:36:01;;;;;;;13.88;9.20;;;6.10;13.90;;;;;;7371103;19;20010;-70
2022/12/05 12:38:39;;;;;;;;;;;6.20;13.30;;;;;;7370799;19;20473;-69
2022/12/05 12:41:18;;;;;;;17.80;9.25;;;6.20;13.30;;;;;;7372755;19;19974;-69
2022/12/05 12:44:07;;;;;;;15.38;9.82;;;6.20;15.30;;;;;;7393437;19;20002;-69
2022/12/05 12:46:48;;;;;;;15.52;9.50;;;6.30;16.70;;;;;;7372243;19;20010;-69
2022/12/05 12:49:38;;;;;;;13.80;9.43;;;6.30;16.60;;;;;;7369491;19;20030;-69
2022/12/05 12:52:14;;;;;;;13.50;9.07;;;6.20;16.90;;;;;;7370361;19;20027;-69
2022/12/05 12:55:00;;;;;;;17.80;10.05;;;6.20;17.50;;;;;;7371092;19;20443;-69
2022/12/05 12:57:48;;;;;;;17.92;9.68;;;6.10;17.80;;;;;;7369850;19;20343;-69
2022/12/05 13:00:32;;;;;;;14.45;9.02;;;6.10;16.90;;;;;;7370134;19;20014;-69
2022/12/05 13:03:12;;;;;;;15.17;9.57;;;6.10;16.20;;;;;;7371130;19;20014;-69
2022/12/05 13:05:47;;;;;;;17.73;10.02;;;6.00;16.70;;;;;;7372137;19;20488;-69
2022/12/05 13:08:25;;;;;;;17.00;9.27;;;6.10;17.00;;;;;;7371158;19;20011;-69
2022/12/05 13:10:57;;;;;;;17.08;10.45;;;6.10;17.50;;;;;;7393288;19;20034;-68
2022/12/05 13:13:32;;;;;;;18.30;10.63;;;6.10;17.60;;;;;;7371044;19;20013;-70
2022/12/05 13:16:07;;;;;;;18.67;11.10;;;6.00;18.00;;;;;;7371005;19;20014;-70
2022/12/05 13:18:37;;;;;;;18.05;10.48;;;6.00;17.60;;;;;;7368474;19;20026;-70
2022/12/05 13:21:09;;;;;;;18.65;11.27;;;5.90;18.30;;;;;;7370542;19;20010;-68